Airfield :
LOGIN :

Register | Disclaimer

   EN    FR    IT 

 










Legend :    VFR   Marginal VFR   IFR   Intensive IFR   Very Intensive IFR
Visi :
Ceiling :
>= 8 km
>= 3000ft
5 to 8 km
1000 to 3000 ft
1500m to 5 km
500 to 1000 ft
800 to 1500m
200 to 500 ft
< 800m
< 200 ft
Symbols :   Thunderstorms  Fog  Heavy snow  Heavy precipitations  Wind > 20 kt
SIGMETs :     Misc.  Thunderstorms  Icing  Turbulence  Mountain Waves  Volcanic Ashes







- Airport Elevation : 265 ft


ETSH - Holzdorf AB

CURRENT METAR :
  • 211148Z 31021G36KT 9000 VCDS FEW050CB SCT100 BKN180 22/11 Q1011 BLU BLU TEMPO WHT

EXPIRED METARs :
  • 211137Z 30022G34KT 9000 VCBLDU FEW050CB SCT100 BKN180 21/12 Q1010 BLU BLU TEMPO WHT
  • 211125Z 26025G45KT 7000 SCT065CB BKN180 26/10 Q1009 WHT BLU TEMPO WHT
  • 211020Z 24021G33KT 9999 FEW060 BKN190 29/12 Q1008 BLU BLU
  • 210920Z 25017KT 9999 SCT060 BKN280 28/13 Q1009 BLU+BLU+ TEMPO BLU

TAF COR TAF ETSH
Valid from the 21 at 11:00 until the 21 at 20:00 UTC


211121Z 2111/2120 25015G30KT 9999 NSW BKN060 BKN180
TEMPO 2111/2120 30020G40KT 5000 SHRA SCT015 BKN025
No reported NOTAMs for that airfield.



MET'MAP, your aeronautical weather chart ! - Copyright ORBIFLY December 2007 - Disclaimer

ORBIFLY MET'MAP TEAM :

Programming & Development : Alexandra Zaïnal
Concept & Development : Baudouin d'Aumeries
Co-Development & Prog : Marc-Olivier Méhu
Technical & hardware support : Manuel Goepfert

Contact : metmap@orbifly.com




SOURCES & CREDITS :

   NOAA